Time;durP1;ratioP1;P1;durP2;ratioP2;P2;SDS_P1;SDS_P2;PMS_P1;PMS_P2;Temp;Humidity;BMP_temperature;BMP_pressure;BME280_temperature;BME280_humidity;BME280_pressure;Samples;Min_cycle;Max_cycle;Signal;HPM_P1;HPM_P2
2022/06/28 00:00:17;;;;;;;1999.90;999.90;;;14.10;99.90;;;;;;5034500;28;20336;-80
2022/06/28 00:02:43;;;;;;;1999.90;999.90;;;14.10;99.90;;;;;;5035111;28;20060;-80
2022/06/28 00:05:09;;;;;;;1999.90;999.90;;;14.00;99.90;;;;;;5034995;28;20104;-72
2022/06/28 00:07:36;;;;;;;1999.90;999.90;;;14.00;99.90;;;;;;5034409;28;20038;-80
2022/06/28 00:10:01;;;;;;;1999.90;999.90;;;14.00;99.90;;;;;;5034504;28;20026;-80
2022/06/28 00:12:27;;;;;;;1999.90;999.90;;;14.00;99.90;;;;;;5034494;28;20427;-80
2022/06/28 00:17:37;;;;;;;1999.90;999.90;;;13.90;99.90;;;;;;5034302;28;20132;-72
2022/06/28 00:20:04;;;;;;;1999.90;999.90;;;13.90;99.90;;;;;;5033205;28;20500;-72
2022/06/28 00:22:30;;;;;;;1999.90;999.90;;;13.90;99.90;;;;;;5022017;28;20010;-80
2022/06/28 00:24:55;;;;;;;1999.90;999.90;;;13.90;99.90;;;;;;5014641;28;20030;-80
2022/06/28 00:27:21;;;;;;;1999.90;999.90;;;13.80;99.90;;;;;;5026922;28;20036;-80
2022/06/28 00:29:46;;;;;;;1999.90;999.90;;;13.80;99.90;;;;;;5034303;28;20040;-80
2022/06/28 00:32:12;;;;;;;1999.90;999.90;;;13.80;99.90;;;;;;5034171;28;20033;-80
2022/06/28 00:34:38;;;;;;;1999.90;999.90;;;13.80;99.90;;;;;;5034079;28;20033;-80
2022/06/28 00:37:04;;;;;;;1999.90;999.90;;;13.70;99.90;;;;;;5033957;28;20164;-80
2022/06/28 00:39:30;;;;;;;1999.90;999.90;;;13.70;99.90;;;;;;5032441;28;20021;-72
2022/06/28 00:41:59;;;;;;;1999.90;999.90;;;13.70;99.90;;;;;;5033403;28;20018;-80
2022/06/28 00:44:24;;;;;;;1999.90;999.90;;;13.60;99.90;;;;;;5017335;28;20393;-80
2022/06/28 00:46:51;;;;;;;1999.90;999.90;;;13.60;99.90;;;;;;5032354;28;20025;-72
2022/06/28 00:49:17;;;;;;;1999.90;999.90;;;13.60;99.90;;;;;;5033848;28;20427;-73
2022/06/28 00:51:43;;;;;;;1999.90;999.90;;;13.50;99.90;;;;;;5033725;28;20052;-80
2022/06/28 00:54:08;;;;;;;1999.90;999.90;;;13.50;99.90;;;;;;5033724;28;20476;-80
2022/06/28 00:56:34;;;;;;;1999.90;999.90;;;13.50;99.90;;;;;;5034044;28;20387;-80
2022/06/28 00:59:01;;;;;;;1999.90;999.90;;;13.50;99.90;;;;;;5031871;28;20021;-72
2022/06/28 01:01:27;;;;;;;1999.90;999.90;;;13.50;99.90;;;;;;5014018;28;20029;-79
2022/06/28 01:03:54;;;;;;;1999.90;999.90;;;13.50;99.90;;;;;;5013760;28;20026;-80
2022/06/28 01:06:20;;;;;;;1999.90;999.90;;;13.50;99.90;;;;;;5013803;28;20421;-80
2022/06/28 01:08:47;;;;;;;1999.90;999.90;;;13.50;99.90;;;;;;5013348;28;20037;-80
2022/06/28 01:11:19;;;;;;;1999.90;999.90;;;13.40;99.90;;;;;;5013725;28;20485;-72
2022/06/28 01:13:54;;;;;;;1999.90;999.90;;;13.30;99.90;;;;;;5013418;28;20172;-72
2022/06/28 01:16:21;;;;;;;1999.90;999.90;;;13.20;99.90;;;;;;4995128;28;20427;-80
2022/06/28 01:18:47;;;;;;;1999.90;999.90;;;13.20;99.90;;;;;;5012958;28;20022;-80
2022/06/28 01:21:17;;;;;;;1999.90;999.90;;;13.20;99.90;;;;;;5014025;28;20022;-80
2022/06/28 01:23:47;;;;;;;1999.90;999.90;;;13.20;99.90;;;;;;5033016;28;20539;-80
2022/06/28 01:26:21;;;;;;;1999.90;999.90;;;13.20;99.90;;;;;;5032255;28;20385;-80
2022/06/28 01:28:49;;;;;;;1999.90;999.90;;;13.10;99.90;;;;;;5013218;28;20034;-80
2022/06/28 01:31:16;;;;;;;1999.90;999.90;;;13.10;99.90;;;;;;5013451;28;20026;-80
2022/06/28 01:33:42;;;;;;;1999.90;999.90;;;13.10;99.90;;;;;;5013378;28;20034;-80
2022/06/28 01:36:09;;;;;;;1999.90;999.90;;;13.10;99.90;;;;;;5014328;28;20029;-72
2022/06/28 01:38:36;;;;;;;1999.90;999.90;;;13.10;99.90;;;;;;5031312;28;20032;-80
2022/06/28 01:41:02;;;;;;;1999.90;999.90;;;13.00;99.90;;;;;;5032168;28;20104;-80
2022/06/28 01:43:30;;;;;;;1999.90;999.90;;;13.00;99.90;;;;;;5024868;28;20105;-80
2022/06/28 01:45:56;;;;;;;1999.90;999.90;;;12.90;99.90;;;;;;5006010;28;20025;-80
2022/06/28 01:48:22;;;;;;;1999.90;999.90;;;12.90;99.90;;;;;;5033033;28;20036;-76
2022/06/28 01:50:48;;;;;;;1999.90;999.90;;;12.90;99.90;;;;;;5032850;28;20119;-80
2022/06/28 01:53:14;;;;;;;1999.90;999.90;;;12.80;99.90;;;;;;5032740;28;20025;-80
2022/06/28 01:55:41;;;;;;;1999.90;999.90;;;12.80;99.90;;;;;;5031886;28;20400;-80
2022/06/28 01:58:07;;;;;;;1999.90;999.90;;;12.80;99.90;;;;;;5032839;28;20026;-80
2022/06/28 02:00:32;;;;;;;1999.90;999.90;;;12.80;99.90;;;;;;5018423;28;20401;-80
2022/06/28 02:02:58;;;;;;;1999.90;999.90;;;12.80;99.90;;;;;;5007022;28;20056;-71
2022/06/28 02:05:24;;;;;;;1999.90;999.90;;;12.80;99.90;;;;;;5032934;28;20038;-72
2022/06/28 02:07:51;;;;;;;1999.90;999.90;;;12.80;99.90;;;;;;5032387;28;20033;-80
2022/06/28 02:10:18;;;;;;;1999.90;999.90;;;12.80;99.90;;;;;;5032571;28;20029;-80
2022/06/28 02:12:44;;;;;;;1999.90;999.90;;;12.70;99.90;;;;;;5032627;28;20082;-80
2022/06/28 02:15:10;;;;;;;1999.90;999.90;;;12.70;99.90;;;;;;5032421;28;20033;-80
2022/06/28 02:17:36;;;;;;;1999.90;999.90;;;12.70;99.90;;;;;;5032408;28;20140;-80
2022/06/28 02:20:02;;;;;;;1999.90;999.90;;;12.80;99.90;;;;;;5025722;28;20104;-72
2022/06/28 02:22:28;;;;;;;1999.90;999.90;;;12.70;99.90;;;;;;5012264;28;20030;-80
2022/06/28 02:24:54;;;;;;;1999.90;999.90;;;12.80;99.90;;;;;;5014847;28;20107;-80
2022/06/28 02:27:19;;;;;;;1999.90;999.90;;;12.70;99.90;;;;;;5020186;28;20034;-72
2022/06/28 02:29:45;;;;;;;1999.90;999.90;;;12.70;99.90;;;;;;5012740;28;20030;-72
2022/06/28 02:32:11;;;;;;;1999.90;999.90;;;12.70;99.90;;;;;;5012078;28;20026;-80
2022/06/28 02:40:22;;;;;;;1999.90;999.90;;;12.70;99.90;;;;;;5032618;28;20040;-80
2022/06/28 02:42:52;;;;;;;1999.90;999.90;;;12.60;99.90;;;;;;5028820;28;20030;-80
2022/06/28 02:45:19;;;;;;;1999.90;999.90;;;12.60;99.90;;;;;;5007886;28;20208;-80
2022/06/28 02:47:45;;;;;;;1999.90;999.90;;;12.50;99.90;;;;;;5032224;28;20492;-80
2022/06/28 02:50:11;;;;;;;1999.90;999.90;;;12.50;99.90;;;;;;5032384;28;20112;-72
2022/06/28 02:52:37;;;;;;;1999.90;999.90;;;12.40;99.90;;;;;;5031961;28;20484;-80
2022/06/28 02:55:03;;;;;;;1999.90;999.90;;;12.20;99.90;;;;;;5032652;28;20021;-72
2022/06/28 02:57:29;;;;;;;1999.90;999.90;;;12.10;99.90;;;;;;5032277;28;20466;-80
2022/06/28 02:59:55;;;;;;;1999.90;999.90;;;12.10;99.90;;;;;;5023209;28;20057;-80
2022/06/28 03:02:20;;;;;;;1999.90;999.90;;;12.00;99.90;;;;;;5012427;28;20025;-80
2022/06/28 03:04:46;;;;;;;1999.90;999.90;;;12.00;99.90;;;;;;5022399;28;20367;-80
2022/06/28 03:07:11;;;;;;;1999.90;999.90;;;12.00;99.90;;;;;;5032239;28;20053;-80
2022/06/28 03:09:37;;;;;;;1999.90;999.90;;;12.00;99.90;;;;;;5018165;28;20076;-72
2022/06/28 03:12:05;;;;;;;1999.90;999.90;;;12.00;99.90;;;;;;5035691;28;20095;-79
2022/06/28 03:14:31;;;;;;;1999.90;999.90;;;12.00;99.90;;;;;;5018277;28;20448;-80
2022/06/28 03:16:56;;;;;;;1999.90;999.90;;;12.00;99.90;;;;;;5035335;28;20116;-79
2022/06/28 03:19:22;;;;;;;1999.90;999.90;;;12.00;99.90;;;;;;5032872;28;20026;-80
2022/06/28 03:21:47;;;;;;;1999.90;999.90;;;11.90;99.90;;;;;;5017593;28;20211;-79
2022/06/28 03:24:13;;;;;;;1999.90;999.90;;;11.90;99.90;;;;;;5010651;28;20032;-80
2022/06/28 03:26:39;;;;;;;1999.90;999.90;;;11.90;99.90;;;;;;5035544;28;20037;-80
2022/06/28 03:29:05;;;;;;;1999.90;999.90;;;11.90;99.90;;;;;;5035408;28;20017;-72
2022/06/28 03:31:31;;;;;;;1999.90;999.90;;;12.00;99.90;;;;;;5035244;28;20029;-80
2022/06/28 03:33:57;;;;;;;1999.90;999.90;;;11.90;99.90;;;;;;5034990;28;20065;-72
2022/06/28 03:36:22;;;;;;;1999.90;999.90;;;12.00;99.90;;;;;;5035158;28;20029;-80
2022/06/28 03:38:49;;;;;;;1999.90;999.90;;;11.90;99.90;;;;;;5024272;28;20065;-79
2022/06/28 03:41:22;;;;;;;1999.90;999.90;;;11.90;99.90;;;;;;5020232;28;20101;-72
2022/06/28 03:43:48;;;;;;;1999.90;999.90;;;11.90;99.90;;;;;;5035071;28;20018;-80
2022/06/28 03:46:14;;;;;;;1999.90;999.90;;;11.90;99.90;;;;;;5027808;28;20029;-72
2022/06/28 03:48:40;;;;;;;1999.90;999.90;;;11.90;99.90;;;;;;5034947;28;20031;-79
2022/06/28 03:51:05;;;;;;;1999.90;999.90;;;11.80;99.90;;;;;;5035086;28;20120;-80
2022/06/28 03:53:31;;;;;;;1999.90;999.90;;;11.90;99.90;;;;;;5034717;28;20061;-79
2022/06/28 03:55:57;;;;;;;1999.90;999.90;;;11.90;99.90;;;;;;5034967;28;20033;-80
2022/06/28 03:58:23;;;;;;;1999.90;999.90;;;11.90;99.90;;;;;;5034761;28;20029;-77
2022/06/28 04:00:48;;;;;;;1999.90;999.90;;;11.90;99.90;;;;;;5034804;28;20029;-72
2022/06/28 04:03:14;;;;;;;1999.90;999.90;;;12.00;99.90;;;;;;5034712;28;20047;-80
2022/06/28 04:05:39;;;;;;;1999.90;999.90;;;12.00;99.90;;;;;;5034921;28;20088;-80
2022/06/28 04:08:08;;;;;;;1999.90;999.90;;;12.00;99.90;;;;;;5034590;28;20508;-71
2022/06/28 04:10:34;;;;;;;1999.90;999.90;;;12.00;99.90;;;;;;5034695;28;20449;-80
2022/06/28 04:12:59;;;;;;;1999.90;999.90;;;12.00;99.90;;;;;;5034533;28;20053;-80
2022/06/28 04:15:25;;;;;;;1999.90;999.90;;;12.00;99.90;;;;;;5033865;28;20116;-72
2022/06/28 04:17:50;;;;;;;1999.90;999.90;;;12.00;99.90;;;;;;5033813;28;20024;-72
2022/06/28 04:20:16;;;;;;;1999.90;999.90;;;12.00;99.90;;;;;;5030780;28;20025;-72
2022/06/28 04:22:42;;;;;;;1999.90;999.90;;;11.90;99.90;;;;;;5033358;28;20044;-79
2022/06/28 04:25:08;;;;;;;1999.90;999.90;;;11.90;99.90;;;;;;5016700;28;20036;-72
2022/06/28 04:27:33;;;;;;;1999.90;999.90;;;11.90;99.90;;;;;;5034497;28;20026;-80
2022/06/28 04:29:59;;;;;;;1999.90;999.90;;;11.90;99.90;;;;;;5034439;28;20036;-80
2022/06/28 04:32:25;;;;;;;1999.90;999.90;;;11.90;99.90;;;;;;5033983;28;20029;-72
2022/06/28 04:34:51;;;;;;;1999.90;999.90;;;11.90;99.90;;;;;;5016713;28;20101;-79
2022/06/28 04:37:17;;;;;;;1999.90;999.90;;;11.90;99.90;;;;;;5030543;28;20464;-72
2022/06/28 04:39:42;;;;;;;1999.90;999.90;;;11.90;99.90;;;;;;5015664;28;20029;-80
2022/06/28 04:42:08;;;;;;;1999.90;999.90;;;11.90;99.90;;;;;;5026505;28;20072;-80
2022/06/28 04:44:34;;;;;;;1999.90;999.90;;;12.00;99.90;;;;;;5033841;28;20021;-72
2022/06/28 04:47:01;;;;;;;1999.90;999.90;;;12.00;99.90;;;;;;5014166;28;20026;-80
2022/06/28 04:49:26;;;;;;;1999.90;999.90;;;12.00;99.90;;;;;;5014059;28;20025;-72
2022/06/28 04:51:52;;;;;;;1999.90;999.90;;;12.10;99.90;;;;;;5013953;28;20032;-72
2022/06/28 04:54:18;;;;;;;1999.90;999.90;;;12.10;99.90;;;;;;5014127;28;20026;-81
2022/06/28 04:56:43;;;;;;;1999.90;999.90;;;12.20;99.90;;;;;;5013900;28;20064;-72
2022/06/28 04:59:09;;;;;;;1999.90;999.90;;;12.20;99.90;;;;;;5020865;28;20025;-81
2022/06/28 05:01:35;;;;;;;1999.90;999.90;;;12.30;99.90;;;;;;5033456;28;20021;-80
2022/06/28 05:04:00;;;;;;;1999.90;999.90;;;12.40;99.90;;;;;;5033672;28;20045;-75
2022/06/28 05:06:26;;;;;;;1999.90;999.90;;;12.40;99.90;;;;;;5033645;28;20080;-72
2022/06/28 05:08:52;;;;;;;1999.90;999.90;;;12.50;99.90;;;;;;5033297;28;20053;-80
2022/06/28 05:11:17;;;;;;;1999.90;999.90;;;12.50;99.90;;;;;;5033420;28;20064;-81
2022/06/28 05:13:43;;;;;;;1999.90;999.90;;;12.60;99.90;;;;;;5033277;28;20029;-81
2022/06/28 05:16:08;;;;;;;1999.90;999.90;;;12.70;99.90;;;;;;5032917;28;20033;-81
2022/06/28 05:18:34;;;;;;;1999.90;999.90;;;12.80;99.90;;;;;;5021655;28;20032;-81
2022/06/28 05:21:00;;;;;;;1999.90;999.90;;;12.90;99.90;;;;;;5029265;28;20013;-72
2022/06/28 05:23:26;;;;;;;1999.90;999.90;;;13.00;99.90;;;;;;5032684;28;20105;-80
2022/06/28 05:25:51;;;;;;;1999.90;999.90;;;13.10;99.90;;;;;;5032921;28;20559;-72
2022/06/28 05:28:17;;;;;;;1999.90;999.90;;;13.30;99.90;;;;;;5013218;28;20105;-81
2022/06/28 05:30:43;;;;;;;1999.90;999.90;;;13.30;99.90;;;;;;5013195;28;20037;-81
2022/06/28 05:33:08;;;;;;;1999.90;999.90;;;13.40;99.90;;;;;;5013183;28;20403;-81
2022/06/28 05:35:34;;;;;;;1999.90;999.90;;;13.50;99.90;;;;;;5014131;28;20022;-81
2022/06/28 05:38:00;;;;;;;1999.90;999.90;;;13.60;99.90;;;;;;5016607;28;20515;-72
2022/06/28 05:40:26;;;;;;;1999.90;999.90;;;13.70;99.90;;;;;;5033101;28;20045;-72
2022/06/28 05:42:52;;;;;;;1999.90;999.90;;;13.80;99.90;;;;;;5014991;28;20022;-81
2022/06/28 05:45:17;;;;;;;1999.90;999.90;;;13.90;99.90;;;;;;5018560;28;20499;-81
2022/06/28 05:47:43;;;;;;;1999.90;999.90;;;13.90;99.90;;;;;;5032359;28;20040;-81
2022/06/28 05:50:08;;;;;;;1999.90;999.90;;;14.10;99.90;;;;;;5032731;28;20430;-81
2022/06/28 05:52:34;;;;;;;1999.90;999.90;;;14.20;99.90;;;;;;5031674;28;20029;-81
2022/06/28 05:55:00;;;;;;;1999.90;999.90;;;14.30;99.90;;;;;;5032781;28;20025;-81
2022/06/28 05:57:25;;;;;;;1999.90;999.90;;;14.30;99.90;;;;;;5031830;28;20042;-73
2022/06/28 05:59:51;;;;;;;1999.90;999.90;;;14.40;99.90;;;;;;5019595;28;20018;-72
2022/06/28 06:02:16;;;;;;;1999.90;999.90;;;14.50;99.90;;;;;;5031103;28;20030;-81
2022/06/28 06:04:42;;;;;;;1999.90;999.90;;;14.60;99.90;;;;;;5032807;28;20389;-72
2022/06/28 06:07:08;;;;;;;1999.90;999.90;;;14.70;99.90;;;;;;5013013;28;20068;-73
2022/06/28 06:09:34;;;;;;;1999.90;999.90;;;14.80;99.90;;;;;;5032472;28;20017;-72
2022/06/28 06:12:00;;;;;;;1999.90;999.90;;;14.80;99.90;;;;;;5032113;28;20034;-72
2022/06/28 06:14:25;;;;;;;1999.90;999.90;;;14.90;99.90;;;;;;5032516;28;20033;-72
2022/06/28 06:16:51;;;;;;;1999.90;999.90;;;15.00;99.90;;;;;;5032257;28;20485;-81
2022/06/28 06:19:17;;;;;;;1999.90;999.90;;;15.00;99.90;;;;;;5020381;28;20022;-81
2022/06/28 06:21:44;;;;;;;1999.90;999.90;;;15.10;99.90;;;;;;5026883;28;20505;-73
2022/06/28 06:24:11;;;;;;;1999.90;999.90;;;15.20;99.90;;;;;;5018358;28;20056;-73
2022/06/28 06:26:36;;;;;;;1999.90;999.90;;;15.20;99.90;;;;;;5026454;28;20030;-81
2022/06/28 06:29:02;;;;;;;1999.90;999.90;;;15.30;99.90;;;;;;5032073;28;20109;-80
2022/06/28 06:31:28;;;;;;;1999.90;999.90;;;15.40;99.90;;;;;;5030285;28;20105;-80
2022/06/28 06:33:54;;;;;;;1999.90;999.90;;;15.40;99.90;;;;;;5031948;28;20439;-80
2022/06/28 06:36:21;;;;;;;1999.90;999.90;;;15.60;99.90;;;;;;5032247;28;20033;-73
2022/06/28 06:38:47;;;;;;;1999.90;999.90;;;15.70;99.90;;;;;;5026069;28;20045;-80
2022/06/28 06:41:13;;;;;;;1999.90;999.90;;;15.80;99.90;;;;;;5021441;28;20041;-81
2022/06/28 06:43:39;;;;;;;1999.90;999.90;;;15.90;99.90;;;;;;5025615;28;20026;-73
2022/06/28 06:46:04;;;;;;;1999.90;999.90;;;16.00;99.90;;;;;;5028034;28;20025;-81
2022/06/28 06:48:30;;;;;;;1999.90;999.90;;;16.10;99.90;;;;;;5036268;28;20026;-81
2022/06/28 06:50:55;;;;;;;1999.90;999.90;;;16.20;99.90;;;;;;5035681;28;20029;-80
2022/06/28 06:53:21;;;;;;;1999.90;999.90;;;16.20;99.90;;;;;;5035900;28;20029;-81
2022/06/28 06:55:47;;;;;;;1999.90;999.90;;;16.20;99.90;;;;;;5035622;28;20026;-72
2022/06/28 06:58:13;;;;;;;1999.90;999.90;;;16.30;99.90;;;;;;5028081;28;20028;-81
2022/06/28 07:00:39;;;;;;;1999.90;999.90;;;16.40;99.90;;;;;;5032770;28;20021;-80
2022/06/28 07:03:05;;;;;;;1999.90;999.90;;;16.50;99.90;;;;;;5032442;28;20033;-81
2022/06/28 07:05:32;;;;;;;1999.90;999.90;;;16.60;99.90;;;;;;5021134;28;20392;-80
2022/06/28 07:07:58;;;;;;;1999.90;999.90;;;16.70;99.90;;;;;;5031154;28;20117;-80
2022/06/28 07:10:23;;;;;;;1999.90;999.90;;;16.80;99.90;;;;;;5024943;28;20060;-80
2022/06/28 07:12:49;;;;;;;1999.90;999.90;;;16.90;99.90;;;;;;5033128;28;20037;-81
2022/06/28 07:15:15;;;;;;;1999.90;999.90;;;17.00;99.90;;;;;;5027464;28;20041;-79
2022/06/28 07:17:41;;;;;;;1999.90;999.90;;;17.00;99.90;;;;;;5029113;28;20044;-71
2022/06/28 07:20:07;;;;;;;1999.90;999.90;;;17.20;99.90;;;;;;5025881;28;20030;-80
2022/06/28 07:22:33;;;;;;;1999.90;999.90;;;17.30;99.90;;;;;;5030562;28;20538;-80
2022/06/28 07:24:59;;;;;;;1999.90;999.90;;;17.40;99.90;;;;;;5025515;28;20034;-80
2022/06/28 07:27:26;;;;;;;1999.90;999.90;;;17.60;99.90;;;;;;5032294;28;20049;-71
2022/06/28 07:29:52;;;;;;;1999.90;999.90;;;17.80;99.90;;;;;;5028855;28;20038;-72
2022/06/28 07:32:18;;;;;;;1999.90;999.90;;;18.10;99.90;;;;;;5026225;28;20079;-80
2022/06/28 07:34:44;;;;;;;1999.90;999.90;;;18.90;99.90;;;;;;5027719;28;20037;-80
2022/06/28 07:37:10;;;;;;;1999.90;999.90;;;21.30;99.90;;;;;;5031577;28;20075;-81
2022/06/28 07:39:35;;;;;;;1999.90;999.90;;;23.20;98.30;;;;;;5022870;28;20489;-81
2022/06/28 07:42:01;;;;;;;1999.90;999.90;;;24.70;96.20;;;;;;5030428;28;20116;-72
2022/06/28 07:44:27;;;;;;;1999.90;999.90;;;25.40;94.90;;;;;;5027929;28;20026;-81
2022/06/28 07:46:52;;;;;;;1999.90;999.90;;;25.80;93.10;;;;;;5029299;28;20029;-79
2022/06/28 07:49:18;;;;;;;1999.90;999.90;;;26.20;93.10;;;;;;5024162;28;20037;-78
2022/06/28 07:54:28;;;;;;;1999.90;999.90;;;26.60;91.60;;;;;;5028885;28;20074;-70
2022/06/28 07:56:53;;;;;;;1999.90;999.90;;;27.10;91.30;;;;;;5031945;28;20112;-78
2022/06/28 07:59:19;;;;;;;1999.90;999.90;;;27.50;91.70;;;;;;5032706;28;20029;-77
2022/06/28 08:01:46;;;;;;;1999.90;999.90;;;27.70;91.20;;;;;;5021227;28;20400;-78
2022/06/28 08:04:12;;;;;;;1999.90;999.90;;;27.60;90.50;;;;;;5029782;28;20428;-79
2022/06/28 08:06:38;;;;;;;1999.90;999.90;;;27.50;90.70;;;;;;5022396;28;20520;-70
2022/06/28 08:09:05;;;;;;;1999.90;999.90;;;27.90;89.60;;;;;;5026949;28;20102;-71
2022/06/28 08:11:32;;;;;;;1999.90;999.90;;;27.70;88.90;;;;;;5026987;28;20025;-78
2022/06/28 08:13:58;;;;;;;1999.90;999.90;;;28.00;90.00;;;;;;5031087;28;20025;-78
2022/06/28 08:16:24;;;;;;;1999.90;999.90;;;28.90;88.60;;;;;;5032424;28;20025;-78
2022/06/28 08:18:50;;;;;;;1999.90;999.90;;;29.70;85.90;;;;;;5029747;28;20535;-78
2022/06/28 08:21:16;;;;;;;1999.90;999.90;;;30.00;85.40;;;;;;5031558;28;20076;-70
2022/06/28 08:23:41;;;;;;;1999.90;999.90;;;30.40;86.40;;;;;;5023429;28;20125;-78
2022/06/28 08:26:07;;;;;;;1999.90;999.90;;;30.20;85.80;;;;;;5030061;28;20036;-70
2022/06/28 08:28:32;;;;;;;1999.90;999.90;;;31.10;83.10;;;;;;5024508;28;20349;-78
2022/06/28 08:30:59;;;;;;;1999.90;999.90;;;30.90;83.00;;;;;;5022127;28;20487;-78
2022/06/28 08:33:24;;;;;;;1999.90;999.90;;;30.20;83.30;;;;;;5020792;28;20045;-70
2022/06/28 08:35:50;;;;;;;1999.90;999.90;;;29.10;83.50;;;;;;5030272;28;20029;-78
2022/06/28 08:38:16;;;;;;;1999.90;999.90;;;29.20;84.70;;;;;;5032054;28;20555;-78
2022/06/28 08:40:43;;;;;;;1999.90;999.90;;;28.70;84.30;;;;;;5029430;28;20098;-70
2022/06/28 08:43:09;;;;;;;1999.90;999.90;;;29.00;84.00;;;;;;5015137;28;20037;-78
2022/06/28 08:45:35;;;;;;;1999.90;999.90;;;29.70;82.20;;;;;;5026236;28;20032;-70
2022/06/28 08:48:13;;;;;;;1999.90;999.90;;;30.00;82.30;;;;;;5026251;28;20084;-77
2022/06/28 08:50:41;;;;;;;1999.90;999.90;;;30.10;82.30;;;;;;5028455;28;20025;-77
2022/06/28 08:53:09;;;;;;;1999.90;999.90;;;30.60;81.60;;;;;;5024341;28;20037;-71
2022/06/28 08:55:36;;;;;;;1999.90;999.90;;;31.20;80.80;;;;;;5024642;28;20024;-71
2022/06/28 08:58:06;;;;;;;1999.90;999.90;;;31.60;79.40;;;;;;5027321;28;20111;-71
2022/06/28 09:00:32;;;;;;;1999.90;999.90;;;31.80;80.30;;;;;;5023969;28;20472;-70
2022/06/28 09:02:58;;;;;;;1999.90;999.90;;;32.40;80.40;;;;;;5032513;28;20022;-78
2022/06/28 09:05:26;;;;;;;1999.90;999.90;;;31.80;79.20;;;;;;5024861;28;20041;-71
2022/06/28 09:07:54;;;;;;;1999.90;999.90;;;31.10;80.30;;;;;;5028165;28;20022;-78
2022/06/28 09:10:20;;;;;;;1999.90;999.90;;;30.90;80.60;;;;;;5026455;28;20491;-70
2022/06/28 09:12:54;;;;;;;1999.90;999.90;;;30.20;80.80;;;;;;5025674;28;20026;-71
2022/06/28 09:15:24;;;;;;;1999.90;999.90;;;31.60;79.80;;;;;;5019675;28;20160;-70
2022/06/28 09:17:54;;;;;;;1999.90;999.90;;;30.40;80.80;;;;;;5025969;28;20045;-78
2022/06/28 09:20:21;;;;;;;1999.90;999.90;;;30.70;80.40;;;;;;5026688;28;20022;-78
2022/06/28 09:22:46;;;;;;;1999.90;999.90;;;28.60;82.40;;;;;;5024059;28;20025;-77
2022/06/28 09:25:23;;;;;;;1999.90;999.90;;;26.80;83.90;;;;;;5024304;28;20026;-70
2022/06/28 09:27:48;;;;;;;1999.90;999.90;;;24.10;90.30;;;;;;5030958;28;20037;-72
2022/06/28 09:30:15;;;;;;;1999.90;999.90;;;22.80;91.50;;;;;;5031377;28;20076;-79
2022/06/28 09:32:41;;;;;;;1999.90;999.90;;;22.10;93.50;;;;;;5028579;28;20025;-79
2022/06/28 09:35:09;;;;;;;1999.90;999.90;;;21.90;93.10;;;;;;5023407;28;20051;-79
2022/06/28 09:37:56;;;;;;;1999.90;999.90;;;21.70;93.60;;;;;;5024390;28;20029;-72
2022/06/28 09:40:29;;;;;;;1999.90;999.90;;;23.60;92.20;;;;;;5021617;28;20022;-79
2022/06/28 09:43:12;;;;;;;1999.90;999.90;;;23.10;92.20;;;;;;5027615;28;20026;-79
2022/06/28 09:45:40;;;;;;;1999.90;999.90;;;22.10;93.30;;;;;;5030416;28;20029;-78
2022/06/28 09:48:07;;;;;;;1999.90;999.90;;;21.40;94.20;;;;;;5019621;28;20580;-79
2022/06/28 09:50:35;;;;;;;1999.90;999.90;;;21.50;94.30;;;;;;5029779;28;20025;-71
2022/06/28 09:53:02;;;;;;;1999.90;999.90;;;25.10;91.70;;;;;;5031295;28;20431;-69
2022/06/28 09:55:32;;;;;;;1999.90;999.90;;;28.30;85.60;;;;;;5031710;28;20033;-77
2022/06/28 09:57:59;;;;;;;1999.90;999.90;;;27.50;85.10;;;;;;5023682;28;20661;-77
2022/06/28 10:00:25;;;;;;;1999.90;999.90;;;28.20;85.00;;;;;;5028433;28;20049;-70
2022/06/28 10:02:54;;;;;;;1999.90;999.90;;;28.90;83.80;;;;;;5020911;28;20033;-70
2022/06/28 10:05:20;;;;;;;1999.90;999.90;;;30.70;81.20;;;;;;5031134;28;20522;-70
2022/06/28 10:07:46;;;;;;;1999.90;999.90;;;29.40;78.90;;;;;;5012863;28;20049;-77
2022/06/28 10:10:12;;;;;;;1999.90;999.90;;;29.00;80.10;;;;;;5023500;28;20101;-78
2022/06/28 10:15:57;;;;;;;1999.90;999.90;;;29.90;78.20;;;;;;5029984;28;20526;-70
2022/06/28 10:18:25;;;;;;;1999.90;999.90;;;28.20;79.90;;;;;;4999751;28;20045;-70
2022/06/28 10:20:51;;;;;;;1999.90;999.90;;;28.60;80.40;;;;;;5025105;28;20396;-77
2022/06/28 10:23:27;;;;;;;1999.90;999.90;;;29.20;79.30;;;;;;5030751;28;20026;-78
2022/06/28 10:26:19;;;;;;;1999.90;999.90;;;28.30;79.30;;;;;;5034619;28;20064;-78
2022/06/28 10:28:47;;;;;;;1999.90;999.90;;;28.00;79.20;;;;;;5029452;28;20079;-78
2022/06/28 10:31:24;;;;;;;1999.90;999.90;;;28.50;81.10;;;;;;5033747;28;20033;-70
2022/06/28 10:33:54;;;;;;;1999.90;999.90;;;29.30;78.40;;;;;;5026406;28;20091;-78
2022/06/28 10:36:23;;;;;;;1999.90;999.90;;;28.30;78.40;;;;;;5033756;28;20038;-77
2022/06/28 10:39:06;;;;;;;1999.90;999.90;;;28.80;78.70;;;;;;5026194;28;20036;-76
2022/06/28 10:41:40;;;;;;;1999.90;999.90;;;28.60;79.50;;;;;;5029717;28;20064;-70
2022/06/28 10:44:26;;;;;;;1999.90;999.90;;;29.00;78.60;;;;;;5026664;28;20037;-70
2022/06/28 10:47:01;;;;;;;1999.90;999.90;;;28.40;80.80;;;;;;5034195;28;20407;-70
2022/06/28 10:49:50;;;;;;;1999.90;999.90;;;28.40;79.50;;;;;;5025706;28;20115;-77
2022/06/28 10:52:17;;;;;;;1999.90;999.90;;;28.90;79.40;;;;;;5027918;28;20030;-78
2022/06/28 10:55:03;;;;;;;1999.90;999.90;;;28.30;76.50;;;;;;5030718;28;20040;-72
2022/06/28 10:57:38;;;;;;;1999.90;999.90;;;27.40;80.80;;;;;;5010271;28;20046;-70
2022/06/28 11:00:11;;;;;;;1999.90;999.90;;;27.30;82.90;;;;;;5025813;28;20121;-77
2022/06/28 11:02:49;;;;;;;1999.90;999.90;;;27.70;83.10;;;;;;5029009;28;20026;-77
2022/06/28 11:05:16;;;;;;;1999.90;999.90;;;28.10;78.20;;;;;;5027130;28;20037;-78
2022/06/28 11:07:55;;;;;;;1999.90;999.90;;;27.50;80.50;;;;;;5030937;28;20039;-71
2022/06/28 11:10:21;;;;;;;1999.90;999.90;;;27.40;80.00;;;;;;5027221;28;20029;-71
2022/06/28 11:12:47;;;;;;;1999.90;999.90;;;27.50;80.80;;;;;;5019987;28;20021;-76
2022/06/28 11:15:35;;;;;;;1999.90;999.90;;;26.80;80.60;;;;;;5019840;28;20030;-76
2022/06/28 11:18:01;;;;;;;1999.90;999.90;;;26.60;82.50;;;;;;5014598;28;20030;-76
2022/06/28 11:20:29;;;;;;;1999.90;999.90;;;27.60;83.40;;;;;;5030742;28;20053;-70
2022/06/28 11:22:56;;;;;;;1999.90;999.90;;;27.30;84.10;;;;;;5018396;28;20026;-71
2022/06/28 11:25:23;;;;;;;1999.90;999.90;;;27.40;82.70;;;;;;5034156;28;20021;-76
2022/06/28 11:27:58;;;;;;;1999.90;999.90;;;27.10;84.00;;;;;;5030176;28;20117;-76
2022/06/28 11:30:28;;;;;;;1999.90;999.90;;;27.30;83.10;;;;;;5034725;28;20083;-70
2022/06/28 11:32:59;;;;;;;1999.90;999.90;;;28.10;83.50;;;;;;5031229;28;20037;-77
2022/06/28 11:35:30;;;;;;;1999.90;999.90;;;28.40;82.70;;;;;;5026144;28;20025;-70
2022/06/28 11:38:00;;;;;;;1999.90;999.90;;;27.50;81.90;;;;;;5031169;28;20132;-71
2022/06/28 11:40:27;;;;;;;1999.90;999.90;;;26.30;82.50;;;;;;5019950;28;20022;-76
2022/06/28 11:43:20;;;;;;;1999.90;999.90;;;25.70;85.70;;;;;;5024797;28;20440;-77
2022/06/28 11:45:49;;;;;;;1999.90;999.90;;;25.50;88.40;;;;;;5008967;28;20088;-76
2022/06/28 11:48:15;;;;;;;1999.90;999.90;;;25.80;87.50;;;;;;5033028;28;20028;-71
2022/06/28 11:50:45;;;;;;;1999.90;999.90;;;26.10;87.80;;;;;;5012379;28;20025;-74
2022/06/28 11:53:12;;;;;;;1999.90;999.90;;;26.30;87.80;;;;;;5013951;28;20425;-77
2022/06/28 11:55:49;;;;;;;1999.90;999.90;;;26.00;87.90;;;;;;5028357;28;20473;-78
2022/06/28 11:58:24;;;;;;;1999.90;999.90;;;25.00;89.10;;;;;;5033433;28;20112;-77
2022/06/28 12:01:07;;;;;;;1999.90;999.90;;;24.80;90.10;;;;;;5026866;28;20128;-70
2022/06/28 12:03:57;;;;;;;1999.90;999.90;;;25.30;90.30;;;;;;5025816;28;20072;-77
2022/06/28 12:06:23;;;;;;;1999.90;999.90;;;25.60;89.10;;;;;;5019224;28;20057;-78
2022/06/28 12:08:55;;;;;;;1999.90;999.90;;;25.50;88.60;;;;;;5022502;28;20584;-76
2022/06/28 12:11:31;;;;;;;1999.90;999.90;;;26.20;88.60;;;;;;5019952;28;20516;-77
2022/06/28 12:14:03;;;;;;;1999.90;999.90;;;25.90;88.50;;;;;;5023242;28;21197;-71